Time;durP1;ratioP1;P1;durP2;ratioP2;P2;SDS_P1;SDS_P2;PMS_P1;PMS_P2;Temp;Humidity;BMP_temperature;BMP_pressure;BME280_temperature;BME280_humidity;BME280_pressure;Samples;Min_cycle;Max_cycle;Signal;HPM_P1;HPM_P2
2023/10/22 00:01:14;;;;;;;12.45;4.00;;;;;;;19.59;51.58;98791.03;5052536;28;20159;-77
2023/10/22 00:03:40;;;;;;;19.23;4.03;;;;;;;19.58;51.45;98781.47;5002041;28;20384;-77
2023/10/22 00:06:05;;;;;;;9.10;3.90;;;;;;;19.58;51.49;98790.22;5018290;28;20033;-77
2023/10/22 00:08:31;;;;;;;15.38;4.18;;;;;;;19.57;51.51;98788.56;5001868;28;20491;-77
2023/10/22 00:10:57;;;;;;;14.57;3.80;;;;;;;19.57;51.60;98783.28;5018464;28;20068;-77
2023/10/22 00:13:22;;;;;;;10.25;3.60;;;;;;;19.57;51.47;98774.50;5018593;28;20028;-77
2023/10/22 00:15:48;;;;;;;11.60;3.97;;;;;;;19.57;51.54;98775.31;5017727;28;20037;-77
2023/10/22 00:18:14;;;;;;;13.50;3.88;;;;;;;19.57;51.62;98780.63;5017573;28;20072;-77
2023/10/22 00:20:41;;;;;;;10.68;3.58;;;;;;;19.55;51.62;98774.69;5017856;28;20037;-77
2023/10/22 00:23:07;;;;;;;12.25;4.18;;;;;;;19.57;51.43;98780.63;5034675;28;20397;-77
2023/10/22 00:25:35;;;;;;;14.52;3.70;;;;;;;19.59;51.60;98775.97;5017867;28;20028;-77
2023/10/22 00:28:00;;;;;;;11.85;4.03;;;;;;;19.57;51.51;98775.31;5017916;28;20114;-77
2023/10/22 00:30:26;;;;;;;10.35;3.63;;;;;;;19.61;51.66;98779.28;5001788;28;20491;-77
2023/10/22 00:32:51;;;;;;;10.52;3.72;;;;;;;19.63;51.57;98782.56;5034377;28;20134;-77
2023/10/22 00:35:17;;;;;;;12.52;3.50;;;;;;;19.60;51.59;98771.53;5052343;28;20044;-77
2023/10/22 00:37:42;;;;;;;9.02;3.53;;;;;;;19.64;51.54;98772.81;5017829;28;20029;-77
2023/10/22 00:40:08;;;;;;;13.45;4.05;;;;;;;19.64;51.56;98768.34;5052496;28;20468;-77
2023/10/22 00:42:34;;;;;;;10.80;3.50;;;;;;;19.63;51.53;98763.22;5034203;28;20190;-77
2023/10/22 00:44:59;;;;;;;11.65;3.78;;;;;;;19.63;51.45;98760.59;5017632;28;20037;-77
2023/10/22 00:47:24;;;;;;;10.40;3.50;;;;;;;19.59;51.52;98759.25;5034473;28;20517;-77
2023/10/22 00:49:50;;;;;;;12.20;3.88;;;;;;;19.61;51.73;98766.03;5017898;28;20025;-77
2023/10/22 00:52:15;;;;;;;17.50;4.00;;;;;;;19.55;51.89;98768.56;5018008;28;20037;-77
2023/10/22 00:54:41;;;;;;;9.85;3.60;;;;;;;19.57;51.72;98782.47;5018037;28;20040;-77
2023/10/22 00:57:06;;;;;;;9.45;2.97;;;;;;;19.54;51.92;98786.25;5017915;28;20476;-77
2023/10/22 00:59:32;;;;;;;8.65;3.13;;;;;;;19.49;52.16;98788.63;5017866;28;20025;-77
2023/10/22 01:01:58;;;;;;;15.13;3.40;;;;;;;19.50;52.09;98801.69;5017778;28;20071;-77
2023/10/22 01:04:23;;;;;;;13.80;3.60;;;;;;;19.51;52.27;98792.75;5018096;28;20025;-77
2023/10/22 01:06:48;;;;;;;8.20;3.33;;;;;;;19.53;52.20;98796.03;5017803;28;20032;-77
2023/10/22 01:09:16;;;;;;;15.43;3.90;;;;;;;19.48;52.23;98789.59;5036204;28;20037;-77
2023/10/22 01:12:04;;;;;;;12.32;3.80;;;;;;;19.50;52.28;98791.09;5021499;28;20076;-77
2023/10/22 01:14:29;;;;;;;;;;;;;;;19.54;52.25;98788.91;5022423;28;20029;-77
2023/10/22 01:16:55;;;;;;;12.25;3.20;;;;;;;19.50;52.37;98792.91;5056097;28;19978;-77
2023/10/22 01:19:20;;;;;;;7.10;2.97;;;;;;;19.50;52.29;98782.34;5010343;28;20519;-77
2023/10/22 01:21:46;;;;;;;10.63;3.40;;;;;;;19.49;52.53;98778.03;5018508;28;20032;-78
2023/10/22 01:24:11;;;;;;;6.80;3.05;;;;;;;19.48;52.32;98771.91;5017467;28;20044;-78
2023/10/22 01:26:43;;;;;;;10.10;3.63;;;;;;;19.48;52.61;98779.84;5035651;28;20424;-77
2023/10/22 01:29:10;;;;;;;9.50;3.38;;;;;;;19.44;52.37;98786.47;5001345;28;20037;-77
2023/10/22 01:31:36;;;;;;;9.70;3.22;;;;;;;19.45;52.74;98792.59;4985861;28;20471;-77
2023/10/22 01:34:01;;;;;;;12.55;3.58;;;;;;;19.42;52.67;98771.75;5001035;28;20435;-77
2023/10/22 01:36:27;;;;;;;9.05;3.20;;;;;;;19.47;52.78;98777.38;4985156;28;20021;-77
2023/10/22 01:38:52;;;;;;;8.07;3.53;;;;;;;19.46;52.64;98775.72;5001161;28;20412;-77
2023/10/22 01:41:18;;;;;;;12.07;3.47;;;;;;;19.46;52.73;98776.53;5017457;28;20044;-77
2023/10/22 01:43:43;;;;;;;8.63;3.25;;;;;;;19.47;52.76;98793.25;5035312;28;20026;-77
2023/10/22 01:46:09;;;;;;;8.60;3.45;;;;;;;19.47;52.74;98794.06;5017400;28;20033;-77
2023/10/22 01:48:34;;;;;;;9.15;3.15;;;;;;;19.48;52.70;98787.78;5001159;28;20037;-77
2023/10/22 01:51:00;;;;;;;7.88;3.33;;;;;;;19.46;52.70;98776.53;5000933;28;20052;-77
2023/10/22 01:53:25;;;;;;;8.73;3.38;;;;;;;19.46;52.85;98784.47;5000960;28;20029;-77
2023/10/22 01:55:51;;;;;;;8.85;3.30;;;;;;;19.44;52.88;98793.59;5017558;28;20052;-77
2023/10/22 01:58:16;;;;;;;9.23;3.42;;;;;;;19.42;52.83;98804.38;5017232;28;20021;-77
2023/10/22 02:00:42;;;;;;;11.23;3.40;;;;;;;19.43;53.00;98806.00;5000594;28;20145;-77
2023/10/22 02:03:07;;;;;;;7.93;3.10;;;;;;;19.43;52.97;98808.66;4984634;28;20079;-77
2023/10/22 02:05:33;;;;;;;8.95;3.20;;;;;;;19.43;53.04;98810.47;5000622;28;20033;-78
2023/10/22 02:07:59;;;;;;;10.30;3.50;;;;;;;19.42;53.27;98792.94;4984687;28;20022;-77
2023/10/22 02:10:24;;;;;;;12.55;3.47;;;;;;;19.46;53.13;98805.66;5017119;28;20037;-77
2023/10/22 02:12:50;;;;;;;10.43;3.25;;;;;;;19.47;52.89;98806.50;5017129;28;20502;-77
2023/10/22 02:15:16;;;;;;;9.90;3.33;;;;;;;19.46;53.07;98808.31;4983713;28;20467;-77
2023/10/22 02:17:42;;;;;;;8.48;3.30;;;;;;;19.47;53.11;98811.78;4984152;28;20045;-77
2023/10/22 02:20:08;;;;;;;9.60;2.97;;;;;;;19.43;53.18;98805.19;5033489;28;20124;-77
2023/10/22 02:22:36;;;;;;;8.60;3.20;;;;;;;19.47;53.09;98825.03;5004021;28;20037;-77
2023/10/22 02:25:01;;;;;;;9.20;3.50;;;;;;;19.43;53.23;98816.59;5020044;28;20078;-77
2023/10/22 02:27:27;;;;;;;11.50;4.20;;;;;;;19.42;53.17;98819.41;5036832;28;20020;-77
2023/10/22 02:29:53;;;;;;;7.85;3.47;;;;;;;19.46;53.18;98831.31;5019886;28;20037;-77
2023/10/22 02:32:18;;;;;;;8.93;3.42;;;;;;;19.47;53.34;98835.63;5036412;28;20033;-77
2023/10/22 02:34:44;;;;;;;10.20;3.42;;;;;;;19.47;53.37;98831.13;5036350;28;20029;-77
2023/10/22 02:37:10;;;;;;;8.07;3.22;;;;;;;19.47;53.46;98838.28;5054160;28;20025;-77
2023/10/22 02:39:35;;;;;;;9.52;3.53;;;;;;;19.44;53.56;98825.38;5003013;28;20450;-78
2023/10/22 02:42:01;;;;;;;8.65;3.20;;;;;;;19.44;53.47;98823.53;5020142;28;20029;-78
2023/10/22 02:44:27;;;;;;;12.18;3.33;;;;;;;19.43;53.42;98802.53;5003450;28;20033;-78
2023/10/22 02:46:53;;;;;;;11.65;3.80;;;;;;;19.48;53.51;98824.84;5003309;28;20128;-78
2023/10/22 02:49:18;;;;;;;8.45;3.38;;;;;;;19.50;53.42;98806.97;5020033;28;20041;-79
2023/10/22 02:51:44;;;;;;;8.50;3.30;;;;;;;19.48;53.44;98814.28;5019866;28;20032;-78
2023/10/22 02:54:10;;;;;;;12.15;3.55;;;;;;;19.48;53.53;98808.97;5036224;28;20484;-79
2023/10/22 02:56:35;;;;;;;7.88;3.08;;;;;;;19.43;53.41;98792.75;5019624;28;20020;-79
2023/10/22 02:59:01;;;;;;;9.18;3.35;;;;;;;19.50;53.51;98801.69;5035998;28;20060;-78
2023/10/22 03:01:26;;;;;;;9.57;3.28;;;;;;;19.51;53.50;98802.50;5003232;28;20515;-78
2023/10/22 03:03:52;;;;;;;9.32;3.67;;;;;;;19.50;53.53;98806.97;5035822;28;20028;-79
2023/10/22 03:06:18;;;;;;;9.38;3.33;;;;;;;19.50;53.61;98801.69;5053577;28;20032;-78
2023/10/22 03:08:44;;;;;;;8.05;3.63;;;;;;;19.48;53.64;98793.09;5002981;28;20037;-78
2023/10/22 03:11:17;;;;;;;10.55;3.30;;;;;;;19.48;53.75;98794.91;5003079;28;20054;-78
2023/10/22 03:13:43;;;;;;;9.10;3.30;;;;;;;19.44;53.74;98783.84;5002744;28;20044;-78
2023/10/22 03:16:14;;;;;;;9.95;3.50;;;;;;;19.48;53.80;98801.03;5002936;28;20029;-78
2023/10/22 03:18:40;;;;;;;9.55;3.50;;;;;;;19.44;53.79;98801.56;5014304;28;20152;-79
2023/10/22 03:21:12;;;;;;;11.93;3.45;;;;;;;19.47;53.82;98802.03;4983242;28;20044;-78
2023/10/22 03:23:41;;;;;;;9.80;3.50;;;;;;;19.46;53.87;98805.66;4999506;28;20061;-78
2023/10/22 03:26:07;;;;;;;8.68;3.15;;;;;;;19.44;53.97;98817.44;5016198;28;20064;-78
2023/10/22 03:28:32;;;;;;;9.68;3.72;;;;;;;19.44;54.04;98810.31;5015580;28;20026;-78
2023/10/22 03:31:03;;;;;;;8.73;3.65;;;;;;;19.42;53.94;98808.81;4981903;28;20119;-79
2023/10/22 03:33:28;;;;;;;10.10;3.50;;;;;;;19.41;54.13;98794.78;5015662;28;20033;-78
2023/10/22 03:35:54;;;;;;;6.55;3.20;;;;;;;19.46;54.01;98805.66;4999361;28;20022;-78
2023/10/22 03:38:19;;;;;;;7.53;3.40;;;;;;;19.41;54.08;98786.81;4998517;28;20067;-78
2023/10/22 03:40:45;;;;;;;11.00;3.90;;;;;;;19.45;54.03;98782.84;5015482;28;20052;-77
2023/10/22 03:43:10;;;;;;;11.00;3.78;;;;;;;19.46;54.21;98797.72;4998962;28;20037;-78
2023/10/22 03:45:36;;;;;;;13.60;3.60;;;;;;;19.47;54.22;98804.66;4999235;28;20079;-79
2023/10/22 03:48:01;;;;;;;9.52;3.60;;;;;;;19.48;54.12;98802.84;5015188;28;20083;-78
2023/10/22 03:50:27;;;;;;;7.10;3.28;;;;;;;19.47;54.07;98812.59;5015162;28;20033;-79
2023/10/22 03:52:52;;;;;;;8.63;3.63;;;;;;;19.46;54.19;98805.66;4999369;28;20115;-79
2023/10/22 03:55:18;;;;;;;7.10;3.22;;;;;;;19.44;54.35;98814.78;4999312;28;20036;-78
2023/10/22 03:57:43;;;;;;;11.73;3.45;;;;;;;19.43;54.34;98836.94;4982357;28;20030;-78
2023/10/22 04:00:10;;;;;;;9.68;3.17;;;;;;;19.41;54.39;98841.59;4999158;28;20045;-78
2023/10/22 04:02:36;;;;;;;6.65;3.20;;;;;;;19.47;54.17;98835.63;4982955;28;20116;-79
2023/10/22 04:05:01;;;;;;;9.82;3.08;;;;;;;19.46;54.38;98812.78;4982985;28;20037;-79
2023/10/22 04:07:27;;;;;;;9.68;3.30;;;;;;;19.48;54.34;98808.13;4982537;28;20479;-79
2023/10/22 04:09:52;;;;;;;11.98;3.70;;;;;;;19.52;54.17;98806.81;4998118;28;20516;-78
2023/10/22 04:12:17;;;;;;;9.88;3.67;;;;;;;19.52;53.97;98801.50;4998595;28;20033;-78
2023/10/22 04:14:43;;;;;;;10.80;4.00;;;;;;;19.55;53.94;98829.47;5015074;28;20520;-78
2023/10/22 04:17:08;;;;;;;11.70;3.83;;;;;;;19.53;53.97;98824.34;4982230;28;20057;-79
2023/10/22 04:19:34;;;;;;;10.10;3.40;;;;;;;19.55;54.06;98821.53;5045303;28;20044;-79
2023/10/22 04:21:59;;;;;;;8.10;3.00;;;;;;;19.55;53.95;98826.81;5002198;28;20060;-77
2023/10/22 04:24:25;;;;;;;10.93;4.05;;;;;;;19.53;53.99;98792.56;5017938;28;20037;-76
2023/10/22 04:26:50;;;;;;;12.35;3.38;;;;;;;19.56;53.93;98800.19;5001889;28;20133;-77
2023/10/22 04:29:16;;;;;;;12.25;3.63;;;;;;;19.57;54.05;98806.28;5017861;28;20186;-79
2023/10/22 04:31:41;;;;;;;10.18;3.40;;;;;;;19.56;54.01;98808.13;5001674;28;20029;-77
2023/10/22 04:34:07;;;;;;;10.68;3.40;;;;;;;19.51;53.97;98792.75;5052114;28;20108;-77
2023/10/22 04:36:33;;;;;;;12.02;3.67;;;;;;;19.49;54.22;98785.97;5017929;28;20033;-78
2023/10/22 04:38:58;;;;;;;7.20;3.10;;;;;;;19.55;54.10;98793.22;5001336;28;20492;-78
2023/10/22 04:41:25;;;;;;;9.07;3.33;;;;;;;19.55;54.25;98784.47;5034323;28;20040;-79
2023/10/22 04:43:50;;;;;;;9.45;3.30;;;;;;;19.55;54.20;98779.97;5019554;28;20126;-80
2023/10/22 04:46:16;;;;;;;10.07;3.70;;;;;;;19.55;54.05;98785.28;5022487;28;20055;-79
2023/10/22 04:48:41;;;;;;;9.35;3.50;;;;;;;19.59;54.04;98799.78;5022323;28;20036;-79
2023/10/22 04:51:07;;;;;;;9.40;3.25;;;;;;;19.59;54.11;98813.03;5021267;28;20041;-78
2023/10/22 04:53:36;;;;;;;9.85;3.55;;;;;;;19.59;54.11;98794.50;5022024;28;20112;-79
2023/10/22 04:56:01;;;;;;;8.73;3.70;;;;;;;19.60;54.16;98801.47;5005417;28;20214;-78
2023/10/22 04:58:28;;;;;;;7.82;3.40;;;;;;;19.60;54.02;98830.59;5004971;28;20435;-79
2023/10/22 05:00:54;;;;;;;13.05;3.70;;;;;;;19.63;54.03;98827.59;5021829;28;20450;-78
2023/10/22 05:03:20;;;;;;;10.65;3.97;;;;;;;19.63;53.84;98824.13;5021725;28;20032;-78
2023/10/22 05:05:46;;;;;;;9.20;4.00;;;;;;;19.64;53.94;98816.00;5005625;28;20029;-80
2023/10/22 05:08:11;;;;;;;8.40;3.60;;;;;;;19.64;53.95;98804.56;5017927;28;20045;-79
2023/10/22 05:10:40;;;;;;;8.43;3.40;;;;;;;19.65;53.98;98827.41;5012588;28;20025;-78
2023/10/22 05:13:08;;;;;;;11.73;4.15;;;;;;;19.63;53.78;98827.59;5021581;28;20151;-80
2023/10/22 05:15:33;;;;;;;12.80;4.30;;;;;;;19.67;53.78;98846.59;5037774;28;20083;-78
2023/10/22 05:17:59;;;;;;;10.15;4.10;;;;;;;19.68;53.66;98850.91;5037782;28;20041;-78
2023/10/22 05:20:28;;;;;;;12.43;4.05;;;;;;;19.64;53.82;98853.09;5020618;28;20195;-80
2023/10/22 05:22:54;;;;;;;16.65;4.05;;;;;;;19.69;53.72;98858.69;5021381;28;20024;-79
2023/10/22 05:25:20;;;;;;;12.95;3.88;;;;;;;19.68;53.63;98849.06;5021246;28;20491;-80
2023/10/22 05:27:46;;;;;;;9.82;3.30;;;;;;;19.74;53.98;98852.06;5004545;28;20517;-78
2023/10/22 05:30:12;;;;;;;8.15;3.88;;;;;;;19.76;53.67;98848.25;5055268;28;20051;-78
2023/10/22 05:32:38;;;;;;;11.15;3.63;;;;;;;19.74;53.65;98846.75;5020998;28;20032;-80
2023/10/22 05:35:04;;;;;;;11.10;3.65;;;;;;;19.76;53.73;98836.81;5037198;28;20029;-77
2023/10/22 05:37:30;;;;;;;9.48;3.20;;;;;;;19.78;53.59;98837.47;5014081;28;20037;-78
2023/10/22 05:39:59;;;;;;;10.00;3.83;;;;;;;19.86;53.56;98864.75;5011559;28;20053;-79
2023/10/22 05:42:24;;;;;;;11.82;3.67;;;;;;;19.90;53.63;98851.97;5004389;28;20116;-78
2023/10/22 05:44:50;;;;;;;10.95;3.53;;;;;;;19.93;53.39;98838.38;5054986;28;20116;-80
2023/10/22 05:47:15;;;;;;;8.77;3.80;;;;;;;20.01;53.32;98826.91;5015988;28;20045;-76
2023/10/22 05:49:41;;;;;;;10.90;3.53;;;;;;;19.99;53.38;98829.75;5004221;28;20048;-78
2023/10/22 05:52:07;;;;;;;10.38;3.83;;;;;;;20.08;53.35;98824.38;5005560;28;20480;-79
2023/10/22 05:54:33;;;;;;;8.40;3.83;;;;;;;20.13;53.09;98829.97;5021765;28;20048;-78
2023/10/22 05:57:00;;;;;;;12.15;3.83;;;;;;;20.19;53.32;98879.63;5021536;28;20399;-79
2023/10/22 05:59:26;;;;;;;12.68;3.90;;;;;;;20.28;53.11;98856.56;5006562;28;20060;-78
2023/10/22 06:01:51;;;;;;;9.68;3.22;;;;;;;20.34;52.92;98846.06;5012476;28;20055;-77
2023/10/22 06:04:17;;;;;;;9.95;3.25;;;;;;;20.50;52.56;98847.75;5007026;28;20043;-77
2023/10/22 06:06:42;;;;;;;10.68;3.47;;;;;;;20.64;52.11;98879.81;5036190;28;20025;-76
2023/10/22 06:09:10;;;;;;;14.38;3.75;;;;;;;20.83;51.71;98892.59;5019584;28;20047;-78
2023/10/22 06:11:35;;;;;;;8.90;3.45;;;;;;;20.98;51.49;98859.97;5035612;28;20037;-80
2023/10/22 06:14:02;;;;;;;12.18;3.22;;;;;;;21.27;51.07;98872.44;5003038;28;20091;-78
2023/10/22 06:16:28;;;;;;;11.88;3.78;;;;;;;21.48;50.58;98864.59;5002990;28;20033;-78
2023/10/22 06:18:53;;;;;;;11.52;4.38;;;;;;;21.89;50.30;98859.78;5019036;28;20497;-82
2023/10/22 06:21:19;;;;;;;11.68;3.60;;;;;;;22.35;49.75;98840.84;5019746;28;20068;-75
2023/10/22 06:23:44;;;;;;;12.13;3.50;;;;;;;22.87;48.82;98838.81;5036089;28;20135;-77
2023/10/22 06:26:13;;;;;;;16.23;3.13;;;;;;;23.21;48.93;98861.16;5025055;28;20037;-75
2023/10/22 06:28:39;;;;;;;18.67;3.25;;;;;;;23.27;48.32;98869.19;5020451;28;20021;-75
2023/10/22 06:31:08;;;;;;;27.60;3.20;;;;;;;23.33;47.75;98840.97;5021078;28;20025;-75
2023/10/22 06:33:34;;;;;;;27.77;3.40;;;;;;;23.48;47.51;98851.47;5036388;28;20029;-74
2023/10/22 06:36:10;;;;;;;23.42;3.13;;;;;;;23.59;47.28;98863.41;5036178;28;20079;-75
2023/10/22 06:38:36;;;;;;;20.40;3.58;;;;;;;23.69;47.30;98866.53;5034756;28;20123;-75
2023/10/22 06:41:01;;;;;;;22.52;2.95;;;;;;;23.79;47.31;98876.81;5055002;28;20104;-78
2023/10/22 06:43:27;;;;;;;26.63;3.63;;;;;;;23.90;46.91;98860.28;5040308;28;20037;-76
2023/10/22 06:45:52;;;;;;;21.50;3.40;;;;;;;24.36;46.27;98866.75;5019206;28;20095;-79
2023/10/22 06:48:18;;;;;;;19.95;3.50;;;;;;;25.04;45.03;98841.72;5018710;28;20028;-78
2023/10/22 06:50:43;;;;;;;24.20;3.60;;;;;;;25.79;43.28;98835.91;5002744;28;20051;-78
2023/10/22 06:53:09;;;;;;;18.88;3.20;;;;;;;26.02;43.10;98832.75;5001905;28;20119;-78
2023/10/22 06:55:34;;;;;;;18.60;4.03;;;;;;;26.15;42.30;98827.31;5001386;28;20063;-75
2023/10/22 06:58:00;;;;;;;15.63;3.65;;;;;;;26.36;41.75;98836.84;5051883;28;20032;-79
2023/10/22 07:00:25;;;;;;;16.58;3.67;;;;;;;26.73;40.38;98835.34;5040149;28;20040;-77
2023/10/22 07:02:51;;;;;;;19.65;3.72;;;;;;;26.70;40.45;98818.66;5009754;28;20228;-78
2023/10/22 07:05:16;;;;;;;13.32;3.38;;;;;;;26.49;41.02;98827.09;4998363;28;20040;-79
2023/10/22 07:07:42;;;;;;;11.77;3.20;;;;;;;26.27;41.17;98823.97;5025076;28;20045;-80
2023/10/22 07:10:09;;;;;;;11.93;3.55;;;;;;;26.15;41.38;98835.31;5019197;28;20498;-79
2023/10/22 07:12:35;;;;;;;9.32;3.40;;;;;;;26.03;41.87;98844.25;5002675;28;20479;-79
2023/10/22 07:15:00;;;;;;;13.73;3.65;;;;;;;25.91;42.13;98844.09;5017802;28;20117;-82
2023/10/22 07:17:25;;;;;;;11.45;4.00;;;;;;;25.81;42.37;98858.75;4997741;28;20049;-75
2023/10/22 07:19:51;;;;;;;10.27;3.50;;;;;;;25.72;42.45;98860.03;5051045;28;20053;-74
2023/10/22 07:22:16;;;;;;;13.00;3.88;;;;;;;25.65;42.46;98851.22;5017928;28;20048;-77
2023/10/22 07:24:42;;;;;;;21.00;4.40;;;;;;;25.68;42.26;98850.81;5052591;28;20029;-81
2023/10/22 07:27:08;;;;;;;13.05;3.85;;;;;;;25.55;41.42;98861.53;5001458;28;20071;-73
2023/10/22 07:29:33;;;;;;;13.85;3.72;;;;;;;25.36;42.85;98849.88;5052255;28;20033;-73
2023/10/22 07:31:58;;;;;;;17.95;3.80;;;;;;;25.35;42.97;98841.06;5017266;28;20041;-74
2023/10/22 07:34:24;;;;;;;19.95;3.88;;;;;;;25.33;41.71;98853.78;5018063;28;20025;-71
2023/10/22 07:36:49;;;;;;;19.20;4.20;;;;;;;25.18;41.41;98847.84;5027057;28;20407;-81
2023/10/22 07:39:16;;;;;;;22.05;3.92;;;;;;;25.01;41.91;98842.94;4999619;28;20029;-78
2023/10/22 07:41:41;;;;;;;15.57;4.97;;;;;;;25.21;41.48;98842.09;5017961;28;20031;-76
2023/10/22 07:44:07;;;;;;;21.30;4.32;;;;;;;25.01;41.58;98847.47;5050523;28;20033;-79
2023/10/22 07:46:33;;;;;;;18.35;4.45;;;;;;;24.87;41.87;98841.31;4993931;28;20041;-74
2023/10/22 07:48:59;;;;;;;20.05;4.60;;;;;;;25.27;41.66;98850.09;5049217;28;20025;-74
2023/10/22 07:53:59;;;;;;;24.73;5.82;;;;;;;25.37;42.02;98840.84;5051792;22;20677;-74
2023/10/22 07:56:26;;;;;;;20.63;4.68;;;;;;;25.46;41.37;98848.41;5001803;28;20045;-73
2023/10/22 07:58:51;;;;;;;25.80;4.47;;;;;;;25.63;41.26;98856.78;5017890;28;20041;-76
2023/10/22 08:01:19;;;;;;;15.57;4.25;;;;;;;25.79;40.36;98847.47;5054083;28;20482;-80
2023/10/22 08:03:44;;;;;;;12.30;4.00;;;;;;;26.15;39.82;98853.25;5021350;28;20172;-79
2023/10/22 08:06:10;;;;;;;13.43;4.68;;;;;;;26.52;38.94;98848.88;5034500;28;20032;-75
2023/10/22 08:08:36;;;;;;;19.25;4.45;;;;;;;27.03;38.59;98848.88;5025789;28;20048;-75
2023/10/22 08:11:02;;;;;;;15.63;4.70;;;;;;;27.58;37.88;98845.41;5037694;28;20040;-73
2023/10/22 08:13:28;;;;;;;13.63;4.40;;;;;;;27.98;36.34;98840.34;5021024;28;20126;-76
2023/10/22 08:15:54;;;;;;;15.48;3.78;;;;;;;28.23;35.57;98849.28;5020248;28;20040;-75
2023/10/22 08:18:20;;;;;;;27.00;5.43;;;;;;;28.71;35.59;98848.34;5017001;28;20021;-76
2023/10/22 08:20:45;;;;;;;21.08;4.82;;;;;;;29.12;34.88;98851.97;5062706;28;20040;-72
2023/10/22 08:23:11;;;;;;;17.77;4.80;;;;;;;29.32;33.75;98851.63;5053010;28;20052;-73
2023/10/22 08:25:36;;;;;;;14.18;4.25;;;;;;;29.31;33.59;98851.84;5036858;28;20037;-76
2023/10/22 08:28:02;;;;;;;14.43;4.10;;;;;;;29.47;32.70;98848.41;5033533;28;20093;-74
2023/10/22 08:30:28;;;;;;;13.15;4.15;;;;;;;29.37;33.00;98848.22;5060407;28;20048;-74
2023/10/22 08:32:53;;;;;;;16.60;4.07;;;;;;;29.18;33.17;98839.47;5051472;28;20423;-74
2023/10/22 08:35:19;;;;;;;12.48;3.95;;;;;;;28.94;33.47;98844.03;5047490;28;20052;-76
2023/10/22 08:37:44;;;;;;;15.80;3.90;;;;;;;28.54;33.40;98837.44;5020669;28;20123;-74
2023/10/22 08:40:10;;;;;;;16.23;3.80;;;;;;;28.18;34.34;98828.53;5071148;28;20028;-70
2023/10/22 08:42:35;;;;;;;14.80;3.90;;;;;;;28.25;34.83;98839.97;5070775;28;20025;-74
2023/10/22 08:45:02;;;;;;;15.32;3.88;;;;;;;28.13;34.33;98842.63;5044014;28;20033;-71
2023/10/22 08:47:28;;;;;;;12.05;3.47;;;;;;;28.45;33.98;98828.94;5000738;28;20090;-76
2023/10/22 08:49:55;;;;;;;21.58;4.30;;;;;;;28.82;33.29;98838.66;5023131;28;20032;-75
2023/10/22 08:52:20;;;;;;;16.50;4.25;;;;;;;29.32;33.10;98842.72;5015835;28;20045;-76
2023/10/22 08:54:46;;;;;;;13.30;3.58;;;;;;;29.54;32.18;98843.75;5030476;28;20549;-76
2023/10/22 08:57:11;;;;;;;14.02;3.47;;;;;;;29.74;31.98;98855.94;5016721;28;20104;-77
2023/10/22 08:59:37;;;;;;;13.75;3.70;;;;;;;30.27;31.18;98848.59;5030169;28;20491;-76
2023/10/22 09:02:11;;;;;;;18.08;4.05;;;;;;;30.73;31.55;98848.56;5013235;28;20483;-72
2023/10/22 09:04:36;;;;;;;13.38;4.05;;;;;;;30.96;30.62;98845.72;4996464;28;20103;-73
2023/10/22 09:07:02;;;;;;;18.10;3.90;;;;;;;31.17;30.16;98844.09;5013872;28;20410;-73
2023/10/22 09:09:38;;;;;;;16.98;3.78;;;;;;;31.35;30.73;98839.47;5022389;28;20527;-73
2023/10/22 09:12:04;;;;;;;13.98;3.75;;;;;;;31.54;28.76;98840.78;5014075;28;20036;-71
2023/10/22 09:14:30;;;;;;;12.15;3.80;;;;;;;31.52;29.07;98840.22;5014208;28;20026;-73
2023/10/22 09:16:55;;;;;;;9.98;3.47;;;;;;;31.39;29.45;98833.31;5031501;28;20021;-71
2023/10/22 09:19:36;;;;;;;16.77;4.00;;;;;;;31.59;29.33;98828.44;4997418;28;20033;-76
2023/10/22 09:22:01;;;;;;;13.52;3.60;;;;;;;31.76;29.72;98836.47;4997611;28;20135;-78
2023/10/22 09:24:27;;;;;;;15.15;3.90;;;;;;;31.74;29.90;98836.72;4999628;28;20037;-78
2023/10/22 09:26:52;;;;;;;25.65;4.07;;;;;;;31.78;29.62;98828.94;5033403;28;20021;-81
2023/10/22 09:29:18;;;;;;;15.82;3.60;;;;;;;31.97;29.37;98822.09;4997993;28;20099;-80
2023/10/22 09:31:54;;;;;;;8.90;3.30;;;;;;;31.99;29.38;98819.13;5001561;28;20033;-81
2023/10/22 09:34:27;;;;;;;14.95;3.63;;;;;;;32.13;29.35;98809.56;5002596;28;20044;-77
2023/10/22 09:36:53;;;;;;;18.25;3.50;;;;;;;32.28;28.54;98819.72;5000878;28;20562;-78
2023/10/22 09:39:32;;;;;;;10.32;3.30;;;;;;;32.21;28.37;98824.50;4985098;28;20042;-76
2023/10/22 09:41:58;;;;;;;11.05;3.25;;;;;;;32.22;28.39;98812.63;5008988;28;20033;-78
2023/10/22 09:44:26;;;;;;;10.77;3.20;;;;;;;32.31;28.99;98818.38;5012793;28;20039;-77
2023/10/22 09:46:52;;;;;;;14.35;3.75;;;;;;;32.26;28.65;98806.47;5000376;28;20026;-78
2023/10/22 09:49:18;;;;;;;12.38;3.90;;;;;;;32.14;28.94;98813.91;5018260;28;20048;-77
2023/10/22 09:51:45;;;;;;;14.77;3.78;;;;;;;31.96;28.32;98806.16;5027176;28;20025;-78
2023/10/22 09:54:10;;;;;;;16.13;4.30;;;;;;;31.65;29.13;98803.97;5013124;28;20053;-78
2023/10/22 09:56:44;;;;;;;15.05;3.72;;;;;;;31.26;29.91;98803.22;5029385;28;20522;-77
2023/10/22 09:59:10;;;;;;;11.07;4.28;;;;;;;30.62;30.38;98794.50;5013329;28;20403;-77
2023/10/22 10:01:36;;;;;;;15.10;4.10;;;;;;;29.99;31.52;98795.63;5033015;28;20424;-79
2023/10/22 10:04:03;;;;;;;16.75;4.47;;;;;;;29.88;31.76;98789.25;5007890;28;20042;-82
2023/10/22 10:06:30;;;;;;;13.07;4.10;;;;;;;29.93;31.60;98792.81;4981187;28;20411;-81
2023/10/22 10:08:56;;;;;;;19.50;4.13;;;;;;;29.71;31.88;98787.28;5012862;28;20553;-81
2023/10/22 10:11:21;;;;;;;17.92;4.20;;;;;;;29.61;32.64;98781.72;4998724;28;20037;-76
2023/10/22 10:13:47;;;;;;;14.85;4.30;;;;;;;29.54;34.71;98783.75;5029446;28;20057;-80
2023/10/22 10:16:13;;;;;;;14.23;3.28;;;;;;;29.54;32.94;98776.50;5023579;28;20041;-79
2023/10/22 10:19:00;;;;;;;23.50;4.07;;;;;;;29.47;32.40;98770.44;5017066;28;20424;-81
2023/10/22 10:21:44;;;;;;;16.30;4.35;;;;;;;29.35;33.01;98757.06;5030875;28;20036;-78
2023/10/22 10:24:25;;;;;;;17.85;3.90;;;;;;;29.65;32.56;98764.06;5034553;28;20029;-77
2023/10/22 10:26:56;;;;;;;18.35;4.03;;;;;;;30.00;32.61;98752.34;5032873;28;20032;-78
2023/10/22 10:29:41;;;;;;;25.05;5.00;;;;;;;30.34;32.50;98755.00;5033051;28;20087;-75
2023/10/22 10:32:19;;;;;;;11.07;3.95;;;;;;;30.57;31.85;98745.97;5016589;28;20073;-79
2023/10/22 10:34:49;;;;;;;18.27;4.80;;;;;;;30.77;31.68;98737.31;5015999;28;20124;-79
2023/10/22 10:37:21;;;;;;;15.02;4.30;;;;;;;30.79;31.13;98731.69;5017947;28;20072;-85
2023/10/22 10:39:51;;;;;;;16.88;4.22;;;;;;;30.86;31.71;98732.34;5016795;28;20106;-85
2023/10/22 10:42:29;;;;;;;12.30;4.20;;;;;;;30.91;31.57;98740.47;5003478;28;20129;-86
2023/10/22 10:44:55;;;;;;;13.10;4.43;;;;;;;30.92;31.48;98731.34;5042799;28;20034;-87
2023/10/22 10:47:20;;;;;;;20.92;4.60;;;;;;;30.83;31.72;98717.47;5036231;28;20040;-88
2023/10/22 10:50:06;;;;;;;13.65;4.40;;;;;;;30.66;31.67;98720.25;5037350;28;20026;-87
2023/10/22 10:52:38;;;;;;;12.82;4.10;;;;;;;30.51;32.42;98711.94;5020938;28;20084;-86
2023/10/22 10:55:10;;;;;;;16.00;4.60;;;;;;;30.37;32.37;98705.25;5038634;28;20147;-86
2023/10/22 10:57:37;;;;;;;11.18;4.03;;;;;;;30.26;32.88;98699.69;5021038;28;20407;-86
2023/10/22 11:00:04;;;;;;;18.45;4.38;;;;;;;30.12;33.03;98704.59;5018763;28;20040;-87
2023/10/22 11:02:50;;;;;;;13.95;4.13;;;;;;;30.00;33.56;98700.38;5021097;28;20056;-87
2023/10/22 11:05:28;;;;;;;12.48;4.35;;;;;;;29.88;34.01;98706.66;5045433;28;20557;-86
2023/10/22 11:07:54;;;;;;;9.35;3.90;;;;;;;29.76;34.22;98706.69;5025792;28;20029;-88
2023/10/22 11:10:19;;;;;;;15.40;4.68;;;;;;;29.65;34.04;98698.69;5006227;28;20524;-86
2023/10/22 11:12:45;;;;;;;10.85;3.75;;;;;;;29.53;34.62;98690.69;5019342;28;20029;-88
2023/10/22 11:15:12;;;;;;;12.07;3.88;;;;;;;29.41;34.32;98680.81;5011400;28;20131;-86
2023/10/22 11:17:41;;;;;;;13.27;3.63;;;;;;;29.28;34.79;98683.78;5032798;28;20084;-86
2023/10/22 11:20:07;;;;;;;10.52;3.92;;;;;;;29.17;35.03;98679.25;5005038;28;20040;-87
2023/10/22 11:22:35;;;;;;;10.23;4.40;;;;;;;29.08;35.06;98678.00;5019187;28;20032;-87
2023/10/22 11:25:02;;;;;;;8.75;3.78;;;;;;;28.96;35.35;98662.72;5021052;28;20112;-87
2023/10/22 11:27:28;;;;;;;12.93;4.35;;;;;;;28.92;35.77;98666.13;5020292;28;20452;-85